sensor_id;sensor_type;location;lat;lon;timestamp;temperature;humidity
32753;DHT22;19121;52.428;10.816;2022-12-07T00:01:57;18.00;43.90
32753;DHT22;19121;52.428;10.816;2022-12-07T00:04:22;18.00;44.00
32753;DHT22;19121;52.428;10.816;2022-12-07T00:06:50;18.00;44.50
32753;DHT22;19121;52.428;10.816;2022-12-07T00:09:16;18.00;44.00
32753;DHT22;19121;52.428;10.816;2022-12-07T00:11:42;18.00;43.90
32753;DHT22;19121;52.428;10.816;2022-12-07T00:14:10;18.00;43.90
32753;DHT22;19121;52.428;10.816;2022-12-07T00:16:35;18.00;43.90
32753;DHT22;19121;52.428;10.816;2022-12-07T00:19:01;18.00;43.90
32753;DHT22;19121;52.428;10.816;2022-12-07T00:21:27;18.00;43.90
32753;DHT22;19121;52.428;10.816;2022-12-07T00:23:53;18.00;43.90
32753;DHT22;19121;52.428;10.816;2022-12-07T00:26:20;18.00;43.90
32753;DHT22;19121;52.428;10.816;2022-12-07T00:28:46;18.00;43.90
32753;DHT22;19121;52.428;10.816;2022-12-07T00:31:12;18.00;43.90
32753;DHT22;19121;52.428;10.816;2022-12-07T00:33:38;18.00;43.90
32753;DHT22;19121;52.428;10.816;2022-12-07T00:36:05;18.00;43.90
32753;DHT22;19121;52.428;10.816;2022-12-07T00:38:32;18.00;44.00
32753;DHT22;19121;52.428;10.816;2022-12-07T00:40:58;18.00;44.00
32753;DHT22;19121;52.428;10.816;2022-12-07T00:43:24;18.00;43.90
32753;DHT22;19121;52.428;10.816;2022-12-07T00:45:49;18.00;43.90
32753;DHT22;19121;52.428;10.816;2022-12-07T00:48:15;17.90;43.80
32753;DHT22;19121;52.428;10.816;2022-12-07T00:50:40;18.00;43.90
32753;DHT22;19121;52.428;10.816;2022-12-07T00:53:06;18.00;43.90
32753;DHT22;19121;52.428;10.816;2022-12-07T00:55:34;17.90;43.80
32753;DHT22;19121;52.428;10.816;2022-12-07T00:58:00;17.90;43.80
32753;DHT22;19121;52.428;10.816;2022-12-07T01:00:25;18.00;43.90
32753;DHT22;19121;52.428;10.816;2022-12-07T01:02:51;18.00;43.90
32753;DHT22;19121;52.428;10.816;2022-12-07T01:05:17;17.90;43.80
32753;DHT22;19121;52.428;10.816;2022-12-07T01:07:42;17.90;43.90
32753;DHT22;19121;52.428;10.816;2022-12-07T01:10:07;17.90;43.80
32753;DHT22;19121;52.428;10.816;2022-12-07T01:12:33;17.90;43.90
32753;DHT22;19121;52.428;10.816;2022-12-07T01:14:58;18.00;43.90
32753;DHT22;19121;52.428;10.816;2022-12-07T01:17:24;17.90;43.80
32753;DHT22;19121;52.428;10.816;2022-12-07T01:19:49;17.90;43.80
32753;DHT22;19121;52.428;10.816;2022-12-07T01:22:14;17.90;43.80
32753;DHT22;19121;52.428;10.816;2022-12-07T01:24:40;17.90;43.80
32753;DHT22;19121;52.428;10.816;2022-12-07T01:27:05;17.90;43.90
32753;DHT22;19121;52.428;10.816;2022-12-07T01:29:31;17.90;43.90
32753;DHT22;19121;52.428;10.816;2022-12-07T01:31:56;17.90;43.80
32753;DHT22;19121;52.428;10.816;2022-12-07T01:34:21;17.90;43.80
32753;DHT22;19121;52.428;10.816;2022-12-07T01:36:47;17.90;43.80
32753;DHT22;19121;52.428;10.816;2022-12-07T01:39:12;17.90;43.80
32753;DHT22;19121;52.428;10.816;2022-12-07T01:41:39;17.90;43.80
32753;DHT22;19121;52.428;10.816;2022-12-07T01:44:10;17.90;43.80
32753;DHT22;19121;52.428;10.816;2022-12-07T01:46:36;17.90;43.90
32753;DHT22;19121;52.428;10.816;2022-12-07T01:49:02;17.90;43.80
32753;DHT22;19121;52.428;10.816;2022-12-07T01:51:28;17.90;43.80
32753;DHT22;19121;52.428;10.816;2022-12-07T01:53:54;17.90;43.80
32753;DHT22;19121;52.428;10.816;2022-12-07T01:56:20;17.90;43.80
32753;DHT22;19121;52.428;10.816;2022-12-07T01:58:47;17.90;43.80
32753;DHT22;19121;52.428;10.816;2022-12-07T02:01:13;17.90;43.90
32753;DHT22;19121;52.428;10.816;2022-12-07T02:03:39;17.90;43.80
32753;DHT22;19121;52.428;10.816;2022-12-07T02:06:05;17.90;43.80
32753;DHT22;19121;52.428;10.816;2022-12-07T02:08:31;17.90;43.90
32753;DHT22;19121;52.428;10.816;2022-12-07T02:10:57;17.90;43.90
32753;DHT22;19121;52.428;10.816;2022-12-07T02:13:23;17.90;43.80
32753;DHT22;19121;52.428;10.816;2022-12-07T02:15:57;17.90;43.80
32753;DHT22;19121;52.428;10.816;2022-12-07T02:18:28;17.90;43.90
32753;DHT22;19121;52.428;10.816;2022-12-07T02:21:01;17.90;43.90
32753;DHT22;19121;52.428;10.816;2022-12-07T02:23:39;17.90;43.90
32753;DHT22;19121;52.428;10.816;2022-12-07T02:28:35;17.90;43.80
32753;DHT22;19121;52.428;10.816;2022-12-07T02:31:06;17.90;44.50
32753;DHT22;19121;52.428;10.816;2022-12-07T02:33:36;17.90;43.90
32753;DHT22;19121;52.428;10.816;2022-12-07T02:36:06;17.90;43.90
32753;DHT22;19121;52.428;10.816;2022-12-07T02:38:38;17.90;43.90
32753;DHT22;19121;52.428;10.816;2022-12-07T02:41:06;17.90;43.90
32753;DHT22;19121;52.428;10.816;2022-12-07T02:43:38;17.90;43.90
32753;DHT22;19121;52.428;10.816;2022-12-07T02:46:05;17.90;43.90
32753;DHT22;19121;52.428;10.816;2022-12-07T02:48:32;17.80;43.90
32753;DHT22;19121;52.428;10.816;2022-12-07T02:50:58;17.90;43.90
32753;DHT22;19121;52.428;10.816;2022-12-07T02:53:31;17.80;43.90
32753;DHT22;19121;52.428;10.816;2022-12-07T02:55:57;17.90;43.90
32753;DHT22;19121;52.428;10.816;2022-12-07T02:58:29;17.80;43.90
32753;DHT22;19121;52.428;10.816;2022-12-07T03:01:04;17.80;43.90
32753;DHT22;19121;52.428;10.816;2022-12-07T03:03:34;17.80;43.90
32753;DHT22;19121;52.428;10.816;2022-12-07T03:06:04;17.80;43.90
32753;DHT22;19121;52.428;10.816;2022-12-07T03:08:37;17.90;43.90
32753;DHT22;19121;52.428;10.816;2022-12-07T03:11:04;17.80;44.50
32753;DHT22;19121;52.428;10.816;2022-12-07T03:13:34;17.80;43.80
32753;DHT22;19121;52.428;10.816;2022-12-07T03:16:10;17.90;43.90
32753;DHT22;19121;52.428;10.816;2022-12-07T03:18:40;17.80;43.90
32753;DHT22;19121;52.428;10.816;2022-12-07T03:21:11;17.80;43.90
32753;DHT22;19121;52.428;10.816;2022-12-07T03:23:39;17.90;44.00
32753;DHT22;19121;52.428;10.816;2022-12-07T03:26:05;17.80;43.90
32753;DHT22;19121;52.428;10.816;2022-12-07T03:28:35;17.90;43.90
32753;DHT22;19121;52.428;10.816;2022-12-07T03:31:11;17.90;43.90
32753;DHT22;19121;52.428;10.816;2022-12-07T03:33:44;17.90;43.90
32753;DHT22;19121;52.428;10.816;2022-12-07T03:36:13;17.90;43.90
32753;DHT22;19121;52.428;10.816;2022-12-07T03:43:31;17.90;43.80
32753;DHT22;19121;52.428;10.816;2022-12-07T03:48:32;17.90;43.80
32753;DHT22;19121;52.428;10.816;2022-12-07T03:51:09;17.90;43.80
32753;DHT22;19121;52.428;10.816;2022-12-07T03:53:39;17.80;43.80
32753;DHT22;19121;52.428;10.816;2022-12-07T03:56:06;17.80;43.80
32753;DHT22;19121;52.428;10.816;2022-12-07T03:58:32;17.80;43.80
32753;DHT22;19121;52.428;10.816;2022-12-07T04:00:58;17.80;43.90
32753;DHT22;19121;52.428;10.816;2022-12-07T04:03:23;17.80;43.90
32753;DHT22;19121;52.428;10.816;2022-12-07T04:05:49;17.80;43.90
32753;DHT22;19121;52.428;10.816;2022-12-07T04:08:14;17.80;43.90
32753;DHT22;19121;52.428;10.816;2022-12-07T04:10:39;17.90;43.90
32753;DHT22;19121;52.428;10.816;2022-12-07T04:13:05;17.90;44.00
32753;DHT22;19121;52.428;10.816;2022-12-07T04:15:30;17.90;43.90
32753;DHT22;19121;52.428;10.816;2022-12-07T04:17:56;17.90;43.90
32753;DHT22;19121;52.428;10.816;2022-12-07T04:20:21;17.90;43.90
32753;DHT22;19121;52.428;10.816;2022-12-07T04:22:46;17.90;44.50
32753;DHT22;19121;52.428;10.816;2022-12-07T04:25:12;17.90;43.80
32753;DHT22;19121;52.428;10.816;2022-12-07T04:27:37;17.90;43.80
32753;DHT22;19121;52.428;10.816;2022-12-07T04:30:03;17.90;43.80
32753;DHT22;19121;52.428;10.816;2022-12-07T04:32:29;17.90;43.80
32753;DHT22;19121;52.428;10.816;2022-12-07T04:34:54;17.90;43.80
32753;DHT22;19121;52.428;10.816;2022-12-07T04:37:20;17.90;43.80
32753;DHT22;19121;52.428;10.816;2022-12-07T04:39:45;17.90;43.80
32753;DHT22;19121;52.428;10.816;2022-12-07T04:42:11;17.90;43.80
32753;DHT22;19121;52.428;10.816;2022-12-07T04:44:38;17.90;43.80
32753;DHT22;19121;52.428;10.816;2022-12-07T04:47:03;17.90;43.80
32753;DHT22;19121;52.428;10.816;2022-12-07T04:49:29;17.90;43.80
32753;DHT22;19121;52.428;10.816;2022-12-07T04:51:54;17.90;43.80
32753;DHT22;19121;52.428;10.816;2022-12-07T04:54:20;17.90;43.90
32753;DHT22;19121;52.428;10.816;2022-12-07T04:56:45;17.90;43.90
32753;DHT22;19121;52.428;10.816;2022-12-07T04:59:11;17.90;43.90
32753;DHT22;19121;52.428;10.816;2022-12-07T05:01:37;17.90;43.90
32753;DHT22;19121;52.428;10.816;2022-12-07T05:04:02;17.90;43.80
32753;DHT22;19121;52.428;10.816;2022-12-07T05:06:28;17.90;43.90
32753;DHT22;19121;52.428;10.816;2022-12-07T05:08:53;17.90;43.80
32753;DHT22;19121;52.428;10.816;2022-12-07T05:11:19;17.90;43.80
32753;DHT22;19121;52.428;10.816;2022-12-07T05:14:04;17.90;43.90
32753;DHT22;19121;52.428;10.816;2022-12-07T05:16:29;17.90;43.80
32753;DHT22;19121;52.428;10.816;2022-12-07T05:18:55;18.00;43.80
32753;DHT22;19121;52.428;10.816;2022-12-07T05:21:21;18.00;43.80
32753;DHT22;19121;52.428;10.816;2022-12-07T05:23:46;17.90;43.70
32753;DHT22;19121;52.428;10.816;2022-12-07T05:26:11;17.90;43.70
32753;DHT22;19121;52.428;10.816;2022-12-07T05:28:37;17.90;43.70
32753;DHT22;19121;52.428;10.816;2022-12-07T05:31:02;17.90;43.70
32753;DHT22;19121;52.428;10.816;2022-12-07T05:33:28;18.00;43.70
32753;DHT22;19121;52.428;10.816;2022-12-07T05:35:53;18.00;43.70
32753;DHT22;19121;52.428;10.816;2022-12-07T05:38:19;17.90;44.30
32753;DHT22;19121;52.428;10.816;2022-12-07T05:40:44;17.90;43.70
32753;DHT22;19121;52.428;10.816;2022-12-07T05:43:09;17.90;43.70
32753;DHT22;19121;52.428;10.816;2022-12-07T05:45:35;17.90;43.70
32753;DHT22;19121;52.428;10.816;2022-12-07T05:48:00;17.90;43.80
32753;DHT22;19121;52.428;10.816;2022-12-07T05:50:26;17.90;43.70
32753;DHT22;19121;52.428;10.816;2022-12-07T05:52:52;17.90;43.80
32753;DHT22;19121;52.428;10.816;2022-12-07T05:55:18;17.90;43.70
32753;DHT22;19121;52.428;10.816;2022-12-07T05:57:43;17.90;43.70
32753;DHT22;19121;52.428;10.816;2022-12-07T06:00:29;17.90;43.70
32753;DHT22;19121;52.428;10.816;2022-12-07T06:02:54;17.90;43.70
32753;DHT22;19121;52.428;10.816;2022-12-07T06:05:19;17.90;43.70
32753;DHT22;19121;52.428;10.816;2022-12-07T06:07:45;17.90;43.70
32753;DHT22;19121;52.428;10.816;2022-12-07T06:10:10;17.90;43.70
32753;DHT22;19121;52.428;10.816;2022-12-07T06:12:36;17.90;43.70
32753;DHT22;19121;52.428;10.816;2022-12-07T06:15:03;17.90;43.70
32753;DHT22;19121;52.428;10.816;2022-12-07T06:17:29;18.00;43.70
32753;DHT22;19121;52.428;10.816;2022-12-07T06:19:54;17.90;44.20
32753;DHT22;19121;52.428;10.816;2022-12-07T06:22:19;18.00;43.70
32753;DHT22;19121;52.428;10.816;2022-12-07T06:24:45;18.00;43.60
32753;DHT22;19121;52.428;10.816;2022-12-07T06:27:10;18.00;43.60
32753;DHT22;19121;52.428;10.816;2022-12-07T06:29:36;18.00;43.60
32753;DHT22;19121;52.428;10.816;2022-12-07T06:32:02;18.00;43.60
32753;DHT22;19121;52.428;10.816;2022-12-07T06:34:27;18.00;43.70
32753;DHT22;19121;52.428;10.816;2022-12-07T06:36:53;17.90;43.60
32753;DHT22;19121;52.428;10.816;2022-12-07T06:39:19;17.90;43.60
32753;DHT22;19121;52.428;10.816;2022-12-07T06:41:45;17.90;43.70
32753;DHT22;19121;52.428;10.816;2022-12-07T06:44:10;17.90;43.70
32753;DHT22;19121;52.428;10.816;2022-12-07T06:46:36;17.90;43.70
32753;DHT22;19121;52.428;10.816;2022-12-07T06:49:02;17.90;43.70
32753;DHT22;19121;52.428;10.816;2022-12-07T06:51:27;17.90;43.70
32753;DHT22;19121;52.428;10.816;2022-12-07T06:53:53;17.90;43.70
32753;DHT22;19121;52.428;10.816;2022-12-07T06:56:18;18.00;43.80
32753;DHT22;19121;52.428;10.816;2022-12-07T06:58:43;17.90;43.80
32753;DHT22;19121;52.428;10.816;2022-12-07T07:01:10;17.90;43.80
32753;DHT22;19121;52.428;10.816;2022-12-07T07:03:35;18.00;43.90
32753;DHT22;19121;52.428;10.816;2022-12-07T07:06:01;18.00;43.80
32753;DHT22;19121;52.428;10.816;2022-12-07T07:08:26;18.00;44.40
32753;DHT22;19121;52.428;10.816;2022-12-07T07:10:52;18.00;43.90
32753;DHT22;19121;52.428;10.816;2022-12-07T07:13:17;18.00;44.80
32753;DHT22;19121;52.428;10.816;2022-12-07T07:15:42;18.00;45.70
32753;DHT22;19121;52.428;10.816;2022-12-07T07:18:08;18.10;45.70
32753;DHT22;19121;52.428;10.816;2022-12-07T07:20:33;18.10;46.00
32753;DHT22;19121;52.428;10.816;2022-12-07T07:22:59;18.10;47.00
32753;DHT22;19121;52.428;10.816;2022-12-07T07:25:24;18.10;46.40
32753;DHT22;19121;52.428;10.816;2022-12-07T07:27:50;18.10;45.50
32753;DHT22;19121;52.428;10.816;2022-12-07T07:30:15;18.10;45.60
32753;DHT22;19121;52.428;10.816;2022-12-07T07:32:41;18.10;45.30
32753;DHT22;19121;52.428;10.816;2022-12-07T07:35:06;18.10;45.50
32753;DHT22;19121;52.428;10.816;2022-12-07T07:37:31;18.10;45.80
32753;DHT22;19121;52.428;10.816;2022-12-07T07:39:57;18.10;45.60
32753;DHT22;19121;52.428;10.816;2022-12-07T07:42:22;18.10;45.40
32753;DHT22;19121;52.428;10.816;2022-12-07T07:44:48;18.10;45.20
32753;DHT22;19121;52.428;10.816;2022-12-07T07:47:13;18.10;45.00
32753;DHT22;19121;52.428;10.816;2022-12-07T07:49:38;18.10;45.00
32753;DHT22;19121;52.428;10.816;2022-12-07T07:52:05;18.10;44.90
32753;DHT22;19121;52.428;10.816;2022-12-07T07:54:30;18.10;44.80
32753;DHT22;19121;52.428;10.816;2022-12-07T07:56:56;18.10;44.80
32753;DHT22;19121;52.428;10.816;2022-12-07T07:59:21;18.10;44.80
32753;DHT22;19121;52.428;10.816;2022-12-07T08:01:46;18.10;44.60
32753;DHT22;19121;52.428;10.816;2022-12-07T08:04:12;18.20;44.60
32753;DHT22;19121;52.428;10.816;2022-12-07T08:06:37;18.20;44.60
32753;DHT22;19121;52.428;10.816;2022-12-07T08:09:03;18.20;44.50
32753;DHT22;19121;52.428;10.816;2022-12-07T08:11:30;18.20;44.50
32753;DHT22;19121;52.428;10.816;2022-12-07T08:13:55;18.20;44.40
32753;DHT22;19121;52.428;10.816;2022-12-07T08:16:21;18.30;44.40
32753;DHT22;19121;52.428;10.816;2022-12-07T08:18:46;18.30;44.40
32753;DHT22;19121;52.428;10.816;2022-12-07T08:21:12;18.30;44.40
32753;DHT22;19121;52.428;10.816;2022-12-07T08:23:38;18.30;44.60
32753;DHT22;19121;52.428;10.816;2022-12-07T08:26:05;18.30;44.40
32753;DHT22;19121;52.428;10.816;2022-12-07T08:28:31;18.40;44.40
32753;DHT22;19121;52.428;10.816;2022-12-07T08:31:00;18.30;44.40
32753;DHT22;19121;52.428;10.816;2022-12-07T08:33:26;18.30;44.40
32753;DHT22;19121;52.428;10.816;2022-12-07T08:35:51;18.30;44.50
32753;DHT22;19121;52.428;10.816;2022-12-07T08:38:16;18.40;44.50
32753;DHT22;19121;52.428;10.816;2022-12-07T08:40:42;18.40;44.40
32753;DHT22;19121;52.428;10.816;2022-12-07T08:43:07;18.30;44.30
32753;DHT22;19121;52.428;10.816;2022-12-07T08:45:33;18.30;44.40
32753;DHT22;19121;52.428;10.816;2022-12-07T08:48:05;18.30;44.40
32753;DHT22;19121;52.428;10.816;2022-12-07T08:50:31;18.30;44.40
32753;DHT22;19121;52.428;10.816;2022-12-07T08:52:57;18.30;44.50
32753;DHT22;19121;52.428;10.816;2022-12-07T08:55:23;18.30;44.50
32753;DHT22;19121;52.428;10.816;2022-12-07T08:57:49;18.30;44.90
32753;DHT22;19121;52.428;10.816;2022-12-07T09:00:15;18.40;45.00
32753;DHT22;19121;52.428;10.816;2022-12-07T09:02:43;18.40;44.90
32753;DHT22;19121;52.428;10.816;2022-12-07T09:05:08;18.40;44.70
32753;DHT22;19121;52.428;10.816;2022-12-07T09:07:34;18.40;44.70
32753;DHT22;19121;52.428;10.816;2022-12-07T09:10:00;18.40;44.70
32753;DHT22;19121;52.428;10.816;2022-12-07T09:12:26;18.40;44.70
32753;DHT22;19121;52.428;10.816;2022-12-07T09:14:51;18.40;44.70
32753;DHT22;19121;52.428;10.816;2022-12-07T09:17:16;18.40;44.70
32753;DHT22;19121;52.428;10.816;2022-12-07T09:19:42;18.40;44.60
32753;DHT22;19121;52.428;10.816;2022-12-07T09:22:08;18.40;44.60
32753;DHT22;19121;52.428;10.816;2022-12-07T09:24:33;18.40;44.50
32753;DHT22;19121;52.428;10.816;2022-12-07T09:26:59;18.40;44.50
32753;DHT22;19121;52.428;10.816;2022-12-07T09:29:24;18.40;44.50
32753;DHT22;19121;52.428;10.816;2022-12-07T09:31:50;18.50;44.50
32753;DHT22;19121;52.428;10.816;2022-12-07T09:34:16;18.50;44.50
32753;DHT22;19121;52.428;10.816;2022-12-07T09:36:41;18.50;44.50
32753;DHT22;19121;52.428;10.816;2022-12-07T09:39:17;18.50;44.50
32753;DHT22;19121;52.428;10.816;2022-12-07T09:41:43;18.50;45.10
32753;DHT22;19121;52.428;10.816;2022-12-07T09:44:13;18.50;44.40
32753;DHT22;19121;52.428;10.816;2022-12-07T09:46:40;18.50;44.40
32753;DHT22;19121;52.428;10.816;2022-12-07T09:49:07;18.60;44.40
32753;DHT22;19121;52.428;10.816;2022-12-07T09:51:35;18.60;44.30
32753;DHT22;19121;52.428;10.816;2022-12-07T09:54:00;18.60;44.40
32753;DHT22;19121;52.428;10.816;2022-12-07T09:56:28;18.60;44.30
32753;DHT22;19121;52.428;10.816;2022-12-07T09:58:58;18.60;44.40
32753;DHT22;19121;52.428;10.816;2022-12-07T10:01:27;18.60;45.00
32753;DHT22;19121;52.428;10.816;2022-12-07T10:03:58;18.60;44.40
32753;DHT22;19121;52.428;10.816;2022-12-07T10:06:25;18.60;44.40
32753;DHT22;19121;52.428;10.816;2022-12-07T10:08:50;18.60;44.50
32753;DHT22;19121;52.428;10.816;2022-12-07T10:11:16;18.60;44.40
32753;DHT22;19121;52.428;10.816;2022-12-07T10:13:42;18.70;44.50
32753;DHT22;19121;52.428;10.816;2022-12-07T10:16:26;18.70;44.50
32753;DHT22;19121;52.428;10.816;2022-12-07T10:18:55;18.70;44.50
32753;DHT22;19121;52.428;10.816;2022-12-07T10:21:25;18.60;45.10
32753;DHT22;19121;52.428;10.816;2022-12-07T10:24:00;18.70;44.70
32753;DHT22;19121;52.428;10.816;2022-12-07T10:28:52;18.70;44.70
32753;DHT22;19121;52.428;10.816;2022-12-07T10:31:18;18.70;44.70
32753;DHT22;19121;52.428;10.816;2022-12-07T10:33:54;18.70;44.80
32753;DHT22;19121;52.428;10.816;2022-12-07T10:36:22;18.70;44.70
32753;DHT22;19121;52.428;10.816;2022-12-07T10:38:48;18.70;44.70
32753;DHT22;19121;52.428;10.816;2022-12-07T10:41:14;18.70;44.70
32753;DHT22;19121;52.428;10.816;2022-12-07T10:43:47;18.70;44.80
32753;DHT22;19121;52.428;10.816;2022-12-07T10:46:22;18.70;44.80
32753;DHT22;19121;52.428;10.816;2022-12-07T10:51:24;18.70;44.90
32753;DHT22;19121;52.428;10.816;2022-12-07T10:56:42;18.80;44.90
32753;DHT22;19121;52.428;10.816;2022-12-07T11:01:42;18.70;45.00
32753;DHT22;19121;52.428;10.816;2022-12-07T11:09:40;18.70;44.90
32753;DHT22;19121;52.428;10.816;2022-12-07T11:17:34;18.80;44.90
32753;DHT22;19121;52.428;10.816;2022-12-07T11:22:44;18.80;45.00
32753;DHT22;19121;52.428;10.816;2022-12-07T11:30:51;18.80;45.10
32753;DHT22;19121;52.428;10.816;2022-12-07T11:33:27;18.90;45.10
32753;DHT22;19121;52.428;10.816;2022-12-07T11:38:22;18.90;45.10
32753;DHT22;19121;52.428;10.816;2022-12-07T11:40:48;18.90;45.10
32753;DHT22;19121;52.428;10.816;2022-12-07T11:43:31;18.90;45.10
32753;DHT22;19121;52.428;10.816;2022-12-07T11:48:37;18.90;45.30
32753;DHT22;19121;52.428;10.816;2022-12-07T11:51:03;18.90;45.10
32753;DHT22;19121;52.428;10.816;2022-12-07T11:53:33;18.90;45.10
32753;DHT22;19121;52.428;10.816;2022-12-07T11:58:41;19.00;45.00
32753;DHT22;19121;52.428;10.816;2022-12-07T12:03:46;19.00;44.90
32753;DHT22;19121;52.428;10.816;2022-12-07T12:06:13;19.00;44.80
32753;DHT22;19121;52.428;10.816;2022-12-07T12:08:39;19.00;44.80
32753;DHT22;19121;52.428;10.816;2022-12-07T12:13:59;19.00;44.80
32753;DHT22;19121;52.428;10.816;2022-12-07T12:21:34;19.10;44.80
32753;DHT22;19121;52.428;10.816;2022-12-07T12:24:00;19.10;44.90
32753;DHT22;19121;52.428;10.816;2022-12-07T12:26:29;19.10;44.80
32753;DHT22;19121;52.428;10.816;2022-12-07T12:28:56;19.10;44.90
32753;DHT22;19121;52.428;10.816;2022-12-07T12:33:56;19.10;44.80
32753;DHT22;19121;52.428;10.816;2022-12-07T12:36:25;19.10;44.80
32753;DHT22;19121;52.428;10.816;2022-12-07T12:44:00;19.10;44.80
32753;DHT22;19121;52.428;10.816;2022-12-07T12:48:55;19.20;44.80
32753;DHT22;19121;52.428;10.816;2022-12-07T12:51:37;19.20;44.80
32753;DHT22;19121;52.428;10.816;2022-12-07T12:54:04;19.20;44.80
32753;DHT22;19121;52.428;10.816;2022-12-07T12:59:21;19.20;44.80
32753;DHT22;19121;52.428;10.816;2022-12-07T13:01:49;19.30;44.90
32753;DHT22;19121;52.428;10.816;2022-12-07T13:04:23;19.30;44.90
32753;DHT22;19121;52.428;10.816;2022-12-07T13:06:49;19.30;44.80
32753;DHT22;19121;52.428;10.816;2022-12-07T13:09:22;19.30;44.80
32753;DHT22;19121;52.428;10.816;2022-12-07T13:11:48;19.30;44.90
32753;DHT22;19121;52.428;10.816;2022-12-07T13:16:59;19.30;44.80
32753;DHT22;19121;52.428;10.816;2022-12-07T13:24:55;19.30;44.80
32753;DHT22;19121;52.428;10.816;2022-12-07T13:27:21;19.30;44.90
32753;DHT22;19121;52.428;10.816;2022-12-07T13:29:46;19.30;44.90
32753;DHT22;19121;52.428;10.816;2022-12-07T13:32:25;19.30;44.80
32753;DHT22;19121;52.428;10.816;2022-12-07T13:34:50;19.30;44.80
32753;DHT22;19121;52.428;10.816;2022-12-07T13:37:24;19.30;44.80
32753;DHT22;19121;52.428;10.816;2022-12-07T13:39:52;19.30;44.90
32753;DHT22;19121;52.428;10.816;2022-12-07T13:42:25;19.30;44.80
32753;DHT22;19121;52.428;10.816;2022-12-07T13:44:51;19.30;44.80
32753;DHT22;19121;52.428;10.816;2022-12-07T13:47:35;19.30;44.90
32753;DHT22;19121;52.428;10.816;2022-12-07T13:50:01;19.30;44.80
32753;DHT22;19121;52.428;10.816;2022-12-07T13:52:27;19.30;44.80
32753;DHT22;19121;52.428;10.816;2022-12-07T13:57:31;19.30;44.80
32753;DHT22;19121;52.428;10.816;2022-12-07T14:00:00;19.30;44.80
32753;DHT22;19121;52.428;10.816;2022-12-07T14:02:27;19.30;44.80
32753;DHT22;19121;52.428;10.816;2022-12-07T14:05:05;19.30;44.80
32753;DHT22;19121;52.428;10.816;2022-12-07T14:07:31;19.30;44.80
32753;DHT22;19121;52.428;10.816;2022-12-07T14:09:59;19.30;44.80
32753;DHT22;19121;52.428;10.816;2022-12-07T14:12:25;19.30;44.90
32753;DHT22;19121;52.428;10.816;2022-12-07T14:14:51;19.30;44.90
32753;DHT22;19121;52.428;10.816;2022-12-07T14:17:18;19.30;44.80
32753;DHT22;19121;52.428;10.816;2022-12-07T14:20:02;19.30;44.70
32753;DHT22;19121;52.428;10.816;2022-12-07T14:25:43;19.30;44.70
32753;DHT22;19121;52.428;10.816;2022-12-07T14:27:48;19.30;44.70
32753;DHT22;19121;52.428;10.816;2022-12-07T14:30:17;19.30;44.70
32753;DHT22;19121;52.428;10.816;2022-12-07T14:32:43;19.30;44.60
32753;DHT22;19121;52.428;10.816;2022-12-07T14:35:14;19.30;44.50
32753;DHT22;19121;52.428;10.816;2022-12-07T14:37:41;19.40;44.60
32753;DHT22;19121;52.428;10.816;2022-12-07T14:40:07;19.40;44.60
32753;DHT22;19121;52.428;10.816;2022-12-07T14:42:33;19.40;44.70
32753;DHT22;19121;52.428;10.816;2022-12-07T14:44:58;19.40;44.70
32753;DHT22;19121;52.428;10.816;2022-12-07T14:47:25;19.40;44.70
32753;DHT22;19121;52.428;10.816;2022-12-07T14:49:50;19.40;44.90
32753;DHT22;19121;52.428;10.816;2022-12-07T14:52:17;19.40;45.00
32753;DHT22;19121;52.428;10.816;2022-12-07T14:54:43;19.30;44.90
32753;DHT22;19121;52.428;10.816;2022-12-07T14:57:09;19.40;45.00
32753;DHT22;19121;52.428;10.816;2022-12-07T14:59:35;19.30;45.00
32753;DHT22;19121;52.428;10.816;2022-12-07T15:02:00;19.30;45.10
32753;DHT22;19121;52.428;10.816;2022-12-07T15:04:26;19.30;45.10
32753;DHT22;19121;52.428;10.816;2022-12-07T15:06:55;19.30;45.10
32753;DHT22;19121;52.428;10.816;2022-12-07T15:09:21;19.30;45.20
32753;DHT22;19121;52.428;10.816;2022-12-07T15:11:46;19.30;45.20
32753;DHT22;19121;52.428;10.816;2022-12-07T15:14:11;19.30;45.30
32753;DHT22;19121;52.428;10.816;2022-12-07T15:16:38;19.30;45.30
32753;DHT22;19121;52.428;10.816;2022-12-07T15:19:05;19.30;46.10
32753;DHT22;19121;52.428;10.816;2022-12-07T15:21:31;19.30;45.40
32753;DHT22;19121;52.428;10.816;2022-12-07T15:23:56;19.20;45.40
32753;DHT22;19121;52.428;10.816;2022-12-07T15:26:22;19.20;45.50
32753;DHT22;19121;52.428;10.816;2022-12-07T15:28:47;19.30;45.60
32753;DHT22;19121;52.428;10.816;2022-12-07T15:31:13;19.30;45.90
32753;DHT22;19121;52.428;10.816;2022-12-07T15:33:39;19.20;45.80
32753;DHT22;19121;52.428;10.816;2022-12-07T15:36:04;19.30;45.70
32753;DHT22;19121;52.428;10.816;2022-12-07T15:38:29;19.30;45.70
32753;DHT22;19121;52.428;10.816;2022-12-07T15:40:56;19.20;46.00
32753;DHT22;19121;52.428;10.816;2022-12-07T15:43:21;19.20;45.70
32753;DHT22;19121;52.428;10.816;2022-12-07T15:46:05;19.20;45.70
32753;DHT22;19121;52.428;10.816;2022-12-07T15:48:30;19.20;45.80
32753;DHT22;19121;52.428;10.816;2022-12-07T15:51:06;19.20;45.80
32753;DHT22;19121;52.428;10.816;2022-12-07T15:53:33;19.20;45.60
32753;DHT22;19121;52.428;10.816;2022-12-07T15:55:59;19.20;45.60
32753;DHT22;19121;52.428;10.816;2022-12-07T15:58:24;19.20;45.60
32753;DHT22;19121;52.428;10.816;2022-12-07T16:00:49;19.20;45.50
32753;DHT22;19121;52.428;10.816;2022-12-07T16:03:18;19.20;45.50
32753;DHT22;19121;52.428;10.816;2022-12-07T16:05:50;19.20;45.40
32753;DHT22;19121;52.428;10.816;2022-12-07T16:08:15;19.20;45.40
32753;DHT22;19121;52.428;10.816;2022-12-07T16:10:41;19.20;45.40
32753;DHT22;19121;52.428;10.816;2022-12-07T16:13:10;19.20;45.40
32753;DHT22;19121;52.428;10.816;2022-12-07T16:15:41;19.20;45.40
32753;DHT22;19121;52.428;10.816;2022-12-07T16:18:07;19.10;45.40
32753;DHT22;19121;52.428;10.816;2022-12-07T16:20:32;19.10;45.40
32753;DHT22;19121;52.428;10.816;2022-12-07T16:22:58;19.10;45.40
32753;DHT22;19121;52.428;10.816;2022-12-07T16:25:23;19.10;45.40
32753;DHT22;19121;52.428;10.816;2022-12-07T16:27:49;19.10;45.40
32753;DHT22;19121;52.428;10.816;2022-12-07T16:30:14;19.10;45.40
32753;DHT22;19121;52.428;10.816;2022-12-07T16:32:41;19.10;45.40
32753;DHT22;19121;52.428;10.816;2022-12-07T16:35:07;19.00;45.40
32753;DHT22;19121;52.428;10.816;2022-12-07T16:37:32;19.10;45.70
32753;DHT22;19121;52.428;10.816;2022-12-07T16:39:58;19.00;45.30